Time;durP1;ratioP1;P1;durP2;ratioP2;P2;SDS_P1;SDS_P2;PMS_P1;PMS_P2;Temp;Humidity;BMP_temperature;BMP_pressure;BME280_temperature;BME280_humidity;BME280_pressure;Samples;Min_cycle;Max_cycle;Signal;HPM_P1;HPM_P2
2021/12/13 00:01:33;;;;;;;5.90;4.83;;;;;;;4.82;100.00;152601.56;5057589;28;20425;-76
2021/12/13 00:04:19;;;;;;;7.67;5.30;;;;;;;4.82;100.00;152600.28;5055695;28;20454;-76
2021/12/13 00:06:59;;;;;;;9.00;5.27;;;;;;;4.81;100.00;152597.72;5071260;28;20461;-76
2021/12/13 00:09:40;;;;;;;6.33;4.73;;;;;;;4.82;100.00;152600.28;5083543;28;20528;-76
2021/12/13 00:12:22;;;;;;;6.80;5.00;;;;;;;4.79;100.00;152593.84;5075054;28;20423;-76
2021/12/13 00:14:58;;;;;;;8.00;5.17;;;;;;;4.77;100.00;152587.41;5074690;28;20453;-76
2021/12/13 00:17:43;;;;;;;5.53;4.60;;;;;;;4.78;100.00;152591.28;5076298;28;21030;-76
2021/12/13 00:20:27;;;;;;;5.70;4.40;;;;;;;4.77;100.00;152588.69;5077448;28;20444;-76
2021/12/13 00:23:10;;;;;;;6.47;5.03;;;;;;;4.78;100.00;152590.00;5086518;28;20829;-76
2021/12/13 00:25:48;;;;;;;5.33;3.93;;;;;;;4.74;100.00;152580.97;5070198;28;20481;-76
2021/12/13 00:28:26;;;;;;;7.77;4.80;;;;;;;4.77;100.00;152588.69;5076131;28;21016;-76
2021/12/13 00:31:16;;;;;;;7.50;5.43;;;;;;;4.78;100.00;152591.28;5075912;28;20818;-76
2021/12/13 00:34:07;;;;;;;7.80;5.13;;;;;;;4.77;100.00;152588.69;5094610;28;20808;-76
2021/12/13 00:36:48;;;;;;;5.67;4.80;;;;;;;4.76;100.00;152584.84;5076128;28;20825;-76
2021/12/13 00:39:26;;;;;;;6.03;4.80;;;;;;;4.78;100.00;152591.28;5074594;28;20814;-76
2021/12/13 00:42:05;;;;;;;6.30;4.93;;;;;;;4.78;100.00;152591.28;5069459;28;20441;-76
2021/12/13 00:44:43;;;;;;;9.50;4.80;;;;;;;4.79;100.00;152592.59;5076277;28;20455;-76
2021/12/13 00:47:22;;;;;;;6.50;4.87;;;;;;;4.79;100.00;152592.59;5066502;28;20461;-76
2021/12/13 00:50:04;;;;;;;5.33;4.50;;;;;;;4.79;100.00;152593.84;5094473;28;20767;-76
2021/12/13 00:52:43;;;;;;;8.20;5.00;;;;;;;4.81;100.00;152599.03;5075841;28;20453;-76
2021/12/13 00:55:21;;;;;;;5.90;4.60;;;;;;;4.80;100.00;152596.44;5075752;28;20449;-76
2021/12/13 00:58:08;;;;;;;6.30;5.70;;;;;;;4.82;100.00;152601.56;5076667;28;20417;-76
2021/12/13 01:00:47;;;;;;;6.43;4.70;;;;;;;4.82;100.00;152601.56;5075445;28;20821;-76
2021/12/13 01:03:24;;;;;;;6.33;5.03;;;;;;;4.80;100.00;152596.44;5088736;28;20449;-76
2021/12/13 01:06:36;;;;;;;6.63;5.63;;;;;;;4.80;100.00;152596.44;5075954;28;20472;-76
2021/12/13 01:09:55;;;;;;;8.80;5.87;;;;;;;4.79;100.00;152593.84;5055413;28;20442;-76
2021/12/13 01:12:31;;;;;;;7.43;5.70;;;;;;;4.80;100.00;152596.44;5067471;28;20491;-76
2021/12/13 01:15:12;;;;;;;6.17;4.87;;;;;;;4.81;100.00;152599.03;5075470;28;20452;-76
2021/12/13 01:17:57;;;;;;;6.37;5.03;;;;;;;4.80;100.00;152596.44;5093962;28;20410;-77
2021/12/13 01:20:44;;;;;;;6.00;4.80;;;;;;;4.81;100.00;152599.03;5090056;28;20450;-76
2021/12/13 01:23:38;;;;;;;9.73;5.97;;;;;;;4.82;100.00;152601.56;5084381;28;20532;-76
2021/12/13 01:26:35;;;;;;;7.20;5.37;;;;;;;4.83;100.00;152604.16;5090873;28;20478;-76
2021/12/13 01:29:14;;;;;;;9.63;6.20;;;;;;;4.81;100.00;152597.72;5075403;28;20464;-76
2021/12/13 01:31:53;;;;;;;8.53;6.40;;;;;;;4.80;100.00;152595.13;5092847;28;20421;-76
2021/12/13 01:34:31;;;;;;;10.00;6.20;;;;;;;4.82;100.00;152601.56;5086540;28;20433;-76
2021/12/13 01:37:13;;;;;;;8.87;6.60;;;;;;;4.82;100.00;152600.28;5072836;28;20438;-76
2021/12/13 01:39:53;;;;;;;10.23;5.97;;;;;;;4.82;100.00;152601.56;5071957;28;20442;-76
2021/12/13 01:42:30;;;;;;;8.40;6.07;;;;;;;4.80;100.00;152596.44;5089739;28;20445;-76
2021/12/13 01:45:11;;;;;;;9.00;6.97;;;;;;;4.83;100.00;152602.88;5073550;28;20856;-76
2021/12/13 01:47:47;;;;;;;11.10;6.83;;;;;;;4.82;100.00;152600.28;5072122;28;20426;-75
2021/12/13 01:50:24;;;;;;;8.47;6.67;;;;;;;4.81;100.00;152599.03;5090671;28;20449;-76
2021/12/13 01:53:01;;;;;;;6.80;5.43;;;;;;;4.82;100.00;152601.56;5074063;28;20943;-76
2021/12/13 01:55:43;;;;;;;13.67;7.00;;;;;;;4.82;100.00;152600.28;5091659;28;20445;-76
2021/12/13 01:58:37;;;;;;;6.70;5.67;;;;;;;4.84;100.00;152605.47;5076218;28;20414;-76
2021/12/13 02:01:19;;;;;;;8.13;6.37;;;;;;;4.82;100.00;152601.56;5058998;28;20481;-76
2021/12/13 02:03:58;;;;;;;9.07;6.30;;;;;;;4.82;100.00;152600.28;5073955;28;20438;-76
2021/12/13 02:06:38;;;;;;;8.63;6.37;;;;;;;4.83;100.00;152602.88;5065947;28;20462;-76
2021/12/13 02:09:17;;;;;;;7.93;6.13;;;;;;;4.85;100.00;152609.31;5070852;28;20456;-76
2021/12/13 02:11:57;;;;;;;8.57;6.30;;;;;;;4.83;100.00;152604.16;5073650;28;20445;-76
2021/12/13 02:14:34;;;;;;;9.50;7.13;;;;;;;4.84;100.00;152606.72;5068707;28;20524;-76
2021/12/13 02:17:12;;;;;;;6.83;6.10;;;;;;;4.83;100.00;152604.16;5074802;28;20429;-75
2021/12/13 02:19:51;;;;;;;10.10;6.53;;;;;;;4.84;100.00;152606.72;5058809;28;20475;-76
2021/12/13 02:22:37;;;;;;;8.10;5.83;;;;;;;4.83;100.00;152604.16;5073799;28;20466;-77
2021/12/13 02:25:18;;;;;;;7.37;6.37;;;;;;;4.84;100.00;152606.72;5058297;28;20480;-76
2021/12/13 02:27:59;;;;;;;8.63;6.50;;;;;;;4.82;100.00;152600.28;5074598;28;20441;-75
2021/12/13 02:30:39;;;;;;;9.93;6.03;;;;;;;4.81;100.00;152597.72;5091185;28;20453;-76
2021/12/13 02:33:18;;;;;;;9.40;6.30;;;;;;;4.79;100.00;152593.84;5092146;28;20532;-76
2021/12/13 02:36:01;;;;;;;7.70;6.23;;;;;;;4.82;100.00;152601.56;5074254;28;20837;-76
2021/12/13 02:38:40;;;;;;;9.07;7.23;;;;;;;4.83;100.00;152604.16;5073980;28;20448;-76
2021/12/13 02:41:17;;;;;;;10.77;7.40;;;;;;;4.82;100.00;152600.28;5074222;28;20461;-76
2021/12/13 02:43:56;;;;;;;7.20;6.03;;;;;;;4.80;100.00;152596.44;5077603;28;20440;-76
2021/12/13 02:46:32;;;;;;;8.10;7.27;;;;;;;4.81;100.00;152599.03;5080843;28;20855;-76
2021/12/13 02:49:10;;;;;;;7.40;6.33;;;;;;;4.82;100.00;152601.56;5072173;28;20450;-76
2021/12/13 02:51:50;;;;;;;8.17;6.70;;;;;;;4.83;100.00;152604.16;5071707;28;20440;-76
2021/12/13 02:54:33;;;;;;;9.37;7.07;;;;;;;4.78;100.00;152591.28;5073515;28;20449;-76
2021/12/13 02:57:12;;;;;;;7.57;6.47;;;;;;;4.79;100.00;152592.59;5074421;28;20815;-76
2021/12/13 02:59:51;;;;;;;11.80;6.70;;;;;;;4.79;100.00;152593.84;5091813;28;20452;-76
2021/12/13 03:02:31;;;;;;;8.23;5.80;;;;;;;4.83;100.00;152604.16;5069140;28;20445;-76
2021/12/13 03:05:11;;;;;;;11.33;7.50;;;;;;;4.84;100.00;152605.47;5060605;28;20932;-76
2021/12/13 03:07:50;;;;;;;8.03;6.83;;;;;;;4.85;100.00;152609.31;5053924;28;20564;-76
2021/12/13 03:10:31;;;;;;;8.93;6.77;;;;;;;4.81;100.00;152599.03;5068614;28;20526;-76
2021/12/13 03:13:07;;;;;;;9.57;7.57;;;;;;;4.81;100.00;152599.03;5091495;28;20476;-76
2021/12/13 03:15:45;;;;;;;11.80;8.77;;;;;;;4.80;100.00;152596.44;5074056;28;20530;-76
2021/12/13 03:18:23;;;;;;;10.10;6.30;;;;;;;4.83;100.00;152604.16;5092386;28;20421;-76
2021/12/13 03:21:26;;;;;;;9.50;6.40;;;;;;;4.84;100.00;152606.72;5072785;28;20551;-76
2021/12/13 03:24:16;;;;;;;9.73;7.13;;;;;;;4.83;100.00;152604.16;5073798;28;20432;-76
2021/12/13 03:27:01;;;;;;;9.47;6.73;;;;;;;4.84;100.00;152606.72;5091574;28;20526;-76
2021/12/13 03:29:59;;;;;;;12.10;7.97;;;;;;;4.82;100.00;152601.56;5092223;28;20928;-75
2021/12/13 03:32:39;;;;;;;12.20;7.37;;;;;;;4.85;100.00;152608.03;5053594;28;20480;-76
2021/12/13 03:35:17;;;;;;;9.90;6.90;;;;;;;4.84;100.00;152606.72;5073653;28;20935;-76
2021/12/13 03:38:00;;;;;;;12.60;7.47;;;;;;;4.85;100.00;152608.03;5061191;28;20441;-76
2021/12/13 03:40:36;;;;;;;10.53;6.87;;;;;;;4.87;100.00;152613.22;5091249;28;20522;-76
2021/12/13 03:43:17;;;;;;;8.80;7.30;;;;;;;4.87;100.00;152614.47;5077671;28;20436;-76
2021/12/13 03:45:57;;;;;;;9.60;7.87;;;;;;;4.87;100.00;152614.47;5077265;28;20813;-76
2021/12/13 03:48:34;;;;;;;10.00;7.13;;;;;;;4.87;100.00;152613.22;5095366;28;20425;-76
2021/12/13 03:51:12;;;;;;;11.60;7.60;;;;;;;4.88;100.00;152617.06;5084501;28;20453;-76
2021/12/13 03:53:50;;;;;;;12.37;8.23;;;;;;;4.85;100.00;152609.31;5062603;28;20798;-76
2021/12/13 03:56:28;;;;;;;10.07;7.60;;;;;;;4.87;100.00;152613.22;5075991;28;20448;-76
2021/12/13 03:59:09;;;;;;;10.90;7.87;;;;;;;4.88;100.00;152615.75;5077647;28;20418;-76
2021/12/13 04:01:46;;;;;;;11.57;7.60;;;;;;;4.90;100.00;152622.19;5095094;28;20422;-76
2021/12/13 04:04:25;;;;;;;9.93;7.83;;;;;;;4.90;100.00;152622.19;5071101;28;20446;-76
2021/12/13 04:07:07;;;;;;;10.10;7.40;;;;;;;4.95;100.00;152632.53;5058308;28;20458;-76
2021/12/13 04:09:43;;;;;;;9.00;7.77;;;;;;;4.96;100.00;152635.06;5058610;28;20457;-75
2021/12/13 04:12:23;;;;;;;11.13;7.73;;;;;;;4.93;100.00;152628.63;5063248;28;20477;-76
2021/12/13 04:15:13;;;;;;;10.80;8.20;;;;;;;4.95;100.00;152632.53;5091675;28;20791;-75
2021/12/13 04:18:00;;;;;;;10.70;7.60;;;;;;;4.96;100.00;152635.06;5076903;28;20437;-76
2021/12/13 04:20:38;;;;;;;10.33;7.40;;;;;;;4.97;100.00;152637.69;5076346;28;20445;-76
2021/12/13 04:23:16;;;;;;;9.13;7.30;;;;;;;4.98;100.00;152640.28;5077061;28;20792;-75
2021/12/13 04:25:52;;;;;;;11.20;7.80;;;;;;;4.97;100.00;152638.97;5093998;28;20461;-75
2021/12/13 04:28:34;;;;;;;9.47;7.60;;;;;;;4.97;100.00;152637.69;5068551;28;20820;-75
2021/12/13 04:31:13;;;;;;;9.80;7.27;;;;;;;4.99;100.00;152644.13;5076453;28;20971;-76
2021/12/13 04:33:53;;;;;;;10.47;8.00;;;;;;;5.00;100.00;152645.41;5078188;28;20445;-75
2021/12/13 04:36:32;;;;;;;12.50;8.40;;;;;;;4.99;100.00;152644.13;5059597;28;21060;-76
2021/12/13 04:39:13;;;;;;;10.97;7.17;;;;;;;4.98;100.00;152641.53;5081168;28;20441;-76
2021/12/13 04:41:53;;;;;;;11.60;8.30;;;;;;;4.98;100.00;152640.28;5079885;28;20449;-75
2021/12/13 04:44:34;;;;;;;9.60;8.10;;;;;;;4.96;100.00;152635.06;5093730;28;20494;-75
2021/12/13 04:47:13;;;;;;;10.27;7.90;;;;;;;4.90;100.00;152622.19;5076095;28;20461;-76
2021/12/13 04:49:59;;;;;;;11.30;8.77;;;;;;;4.89;100.00;152619.66;5075292;28;20449;-75
2021/12/13 04:52:35;;;;;;;11.13;8.33;;;;;;;4.87;100.00;152614.47;5075776;28;20899;-76
2021/12/13 04:55:14;;;;;;;9.33;7.40;;;;;;;4.86;100.00;152611.91;5076073;28;20543;-75
2021/12/13 04:57:51;;;;;;;10.10;7.77;;;;;;;4.90;100.00;152620.91;5078459;28;20441;-76
2021/12/13 05:00:30;;;;;;;11.87;8.00;;;;;;;4.91;100.00;152624.78;5094189;28;20436;-76
2021/12/13 05:03:08;;;;;;;10.53;8.60;;;;;;;4.96;100.00;152635.06;5059518;28;20445;-76
2021/12/13 05:05:44;;;;;;;13.60;12.00;;;;;;;4.92;100.00;152626.09;5072754;28;20454;-76
2021/12/13 05:08:21;;;;;;;13.37;10.80;;;;;;;4.92;100.00;152626.09;5074832;28;20465;-76
2021/12/13 05:10:56;;;;;;;13.40;11.10;;;;;;;4.92;100.00;152627.34;5074567;28;20453;-75
2021/12/13 05:13:37;;;;;;;17.77;10.70;;;;;;;4.96;100.00;152635.06;5075689;28;20447;-75
2021/12/13 05:16:15;;;;;;;12.40;10.47;;;;;;;4.97;100.00;152637.69;5079128;28;20446;-76
2021/12/13 05:18:54;;;;;;;14.70;10.53;;;;;;;5.02;100.00;152650.56;5074320;28;20433;-75
2021/12/13 05:21:36;;;;;;;12.10;8.80;;;;;;;5.04;100.00;152657.00;5075395;28;20452;-75
2021/12/13 05:24:15;;;;;;;11.70;9.20;;;;;;;5.04;100.00;152657.00;5075363;28;20421;-76
2021/12/13 05:26:54;;;;;;;12.80;8.87;;;;;;;5.06;100.00;152662.16;5093090;28;20476;-75
2021/12/13 05:29:33;;;;;;;9.63;7.00;;;;;;;5.06;100.00;152660.84;5071347;28;20442;-75
2021/12/13 05:32:12;;;;;;;9.73;6.90;;;;;;;5.05;100.00;152659.59;5057240;28;20453;-76
2021/12/13 05:34:51;;;;;;;10.20;7.83;;;;;;;5.06;100.00;152660.84;5075603;28;20485;-76
2021/12/13 05:37:38;;;;;;;11.83;7.90;;;;;;;5.06;100.00;152662.16;5088584;28;20429;-76
2021/12/13 05:40:17;;;;;;;8.50;6.93;;;;;;;5.08;100.00;152666.03;5040518;28;21160;-75
2021/12/13 05:42:55;;;;;;;13.23;7.90;;;;;;;5.10;100.00;152672.47;5073113;28;20418;-76
2021/12/13 05:45:35;;;;;;;8.53;7.13;;;;;;;5.10;100.00;152671.19;5055145;28;20442;-75
2021/12/13 05:48:14;;;;;;;12.13;8.13;;;;;;;5.10;100.00;152671.19;5069461;28;20457;-75
2021/12/13 05:50:54;;;;;;;11.50;8.17;;;;;;;5.12;100.00;152676.31;5062315;28;20832;-75
2021/12/13 05:53:31;;;;;;;10.90;8.13;;;;;;;5.13;100.00;152680.22;5072535;28;20450;-75
2021/12/13 05:56:09;;;;;;;13.70;8.57;;;;;;;5.12;100.00;152676.31;5072531;28;20540;-75
2021/12/13 05:58:47;;;;;;;11.57;9.27;;;;;;;5.12;100.00;152677.63;5086410;28;20536;-76
2021/12/13 06:01:27;;;;;;;12.07;9.33;;;;;;;5.12;100.00;152676.31;5072485;28;20437;-76
2021/12/13 06:04:15;;;;;;;10.70;8.97;;;;;;;5.10;100.00;152672.47;5054409;28;20446;-76
2021/12/13 06:06:54;;;;;;;10.83;8.50;;;;;;;5.13;100.00;152678.94;5057761;28;20462;-76
2021/12/13 06:09:42;;;;;;;11.30;9.23;;;;;;;5.14;100.00;152681.47;5057567;28;20827;-75
2021/12/13 06:12:26;;;;;;;10.00;8.33;;;;;;;5.17;100.00;152689.22;5073177;28;20552;-74
2021/12/13 06:15:20;;;;;;;10.57;8.13;;;;;;;5.16;100.00;152686.66;5072896;28;20448;-75
2021/12/13 06:18:07;;;;;;;11.07;8.27;;;;;;;5.15;100.00;152684.06;5058191;28;20975;-75
2021/12/13 06:20:47;;;;;;;10.80;9.27;;;;;;;5.18;100.00;152693.09;5074480;28;20453;-75
2021/12/13 06:23:25;;;;;;;12.47;9.17;;;;;;;5.19;100.00;152694.41;5073559;28;20440;-75
2021/12/13 06:26:05;;;;;;;12.60;8.50;;;;;;;5.18;100.00;152691.81;5073009;28;20476;-75
2021/12/13 06:28:43;;;;;;;12.00;8.50;;;;;;;5.19;100.00;152694.41;5071102;28;20505;-74
2021/12/13 06:31:21;;;;;;;12.20;9.60;;;;;;;5.20;100.00;152696.94;5056562;28;20940;-75
2021/12/13 06:33:59;;;;;;;13.53;9.60;;;;;;;5.21;100.00;152700.84;5054192;28;20535;-75
2021/12/13 06:36:38;;;;;;;15.00;9.90;;;;;;;5.19;100.00;152694.41;5056781;28;20461;-74
2021/12/13 06:39:17;;;;;;;15.00;9.60;;;;;;;5.20;100.00;152698.25;5074068;28;20527;-75
2021/12/13 06:41:59;;;;;;;13.33;10.00;;;;;;;5.20;100.00;152698.25;5090569;28;20437;-75
2021/12/13 06:44:39;;;;;;;13.47;10.07;;;;;;;5.22;100.00;152703.41;5083432;28;20809;-75
2021/12/13 06:47:20;;;;;;;13.40;9.97;;;;;;;5.23;100.00;152704.69;5050886;28;20444;-75
2021/12/13 06:49:58;;;;;;;13.43;9.73;;;;;;;5.25;100.00;152709.84;5056917;28;20453;-75
2021/12/13 06:52:34;;;;;;;13.30;9.50;;;;;;;5.25;100.00;152709.84;5065322;28;20923;-76
2021/12/13 06:55:14;;;;;;;14.67;10.10;;;;;;;5.25;100.00;152711.13;5073849;28;20452;-75
2021/12/13 06:57:54;;;;;;;14.50;10.57;;;;;;;5.23;100.00;152704.69;5078595;28;20460;-75
2021/12/13 07:00:35;;;;;;;16.03;10.07;;;;;;;5.21;100.00;152700.84;5068837;28;20820;-74
2021/12/13 07:03:18;;;;;;;11.87;9.67;;;;;;;5.22;100.00;152702.09;5059096;28;20523;-75
2021/12/13 07:05:56;;;;;;;14.17;9.57;;;;;;;5.22;100.00;152702.09;5071553;28;20444;-75
2021/12/13 07:08:34;;;;;;;13.07;10.67;;;;;;;5.24;100.00;152707.28;5070561;28;20469;-75
2021/12/13 07:11:13;;;;;;;13.03;10.07;;;;;;;5.26;100.00;152712.44;5064784;28;21002;-75
2021/12/13 07:14:00;;;;;;;12.63;10.00;;;;;;;5.26;100.00;152713.75;5076197;28;20440;-75
2021/12/13 07:16:39;;;;;;;12.70;10.20;;;;;;;5.24;100.00;152707.28;5073408;28;20448;-75
2021/12/13 07:19:19;;;;;;;15.27;9.73;;;;;;;5.24;100.00;152707.28;5093821;28;20448;-75
2021/12/13 07:21:57;;;;;;;11.83;9.57;;;;;;;5.24;100.00;152707.28;5061171;28;20449;-75
2021/12/13 07:24:40;;;;;;;14.00;10.07;;;;;;;5.26;100.00;152713.75;5073780;28;20469;-75
2021/12/13 07:27:19;;;;;;;12.90;9.07;;;;;;;5.27;100.00;152716.28;5061506;28;20456;-75
2021/12/13 07:29:57;;;;;;;11.90;9.30;;;;;;;5.28;100.00;152717.59;5092618;28;20453;-75
2021/12/13 07:32:34;;;;;;;15.97;9.83;;;;;;;5.28;100.00;152717.59;5068633;28;20825;-75
2021/12/13 07:35:12;;;;;;;13.00;8.83;;;;;;;5.29;100.00;152721.47;5071206;28;20925;-75
2021/12/13 07:37:50;;;;;;;14.27;9.67;;;;;;;5.29;100.00;152720.19;5089295;28;20889;-75
2021/12/13 07:40:39;;;;;;;14.23;11.53;;;;;;;5.29;100.00;152720.19;5085105;28;20484;-75
2021/12/13 07:43:19;;;;;;;11.33;9.40;;;;;;;5.32;100.00;152727.91;5057319;28;20437;-75
2021/12/13 07:45:59;;;;;;;15.60;11.13;;;;;;;5.31;100.00;152726.63;5076076;28;20799;-74
2021/12/13 07:48:36;;;;;;;14.33;10.47;;;;;;;5.33;100.00;152730.47;5070288;28;20567;-75
2021/12/13 07:51:19;;;;;;;12.20;9.80;;;;;;;5.34;100.00;152733.06;5075484;28;20472;-75
2021/12/13 07:54:02;;;;;;;14.77;10.70;;;;;;;5.37;100.00;152740.81;5054053;28;20446;-76
2021/12/13 07:56:43;;;;;;;15.67;11.37;;;;;;;5.38;100.00;152744.66;5067090;28;20815;-75
2021/12/13 07:59:30;;;;;;;15.20;11.47;;;;;;;5.38;100.00;152744.66;5085509;28;20955;-75
2021/12/13 08:02:09;;;;;;;19.53;12.20;;;;;;;5.41;100.00;152752.41;5088464;28;20448;-76
2021/12/13 08:04:47;;;;;;;14.77;11.50;;;;;;;5.45;100.00;152761.44;5060544;28;20452;-75
2021/12/13 08:07:25;;;;;;;15.87;11.43;;;;;;;5.47;100.00;152766.59;5074979;28;20468;-75
2021/12/13 08:10:07;;;;;;;17.47;11.73;;;;;;;5.48;100.00;152769.19;5082921;28;20812;-74
2021/12/13 08:12:45;;;;;;;15.27;11.90;;;;;;;5.49;100.00;152773.03;5071387;28;20452;-75
2021/12/13 08:15:25;;;;;;;16.13;11.80;;;;;;;5.52;100.00;152779.47;5061267;28;20457;-75
2021/12/13 08:18:04;;;;;;;16.00;11.10;;;;;;;5.55;100.00;152787.22;5048693;28;20453;-75
2021/12/13 08:20:43;;;;;;;18.57;12.20;;;;;;;5.58;100.00;152794.97;5074627;28;20458;-74
2021/12/13 08:23:22;;;;;;;15.10;12.03;;;;;;;5.62;100.00;152805.25;5076904;28;20917;-75
2021/12/13 08:26:00;;;;;;;16.03;13.40;;;;;;;5.65;100.00;152813.00;5057566;28;20476;-75
2021/12/13 08:28:39;;;;;;;17.20;12.87;;;;;;;5.70;100.00;152824.59;5072224;28;20936;-75
2021/12/13 08:31:22;;;;;;;16.93;12.53;;;;;;;5.75;100.00;152837.47;5083267;28;20551;-75
2021/12/13 08:34:00;;;;;;;17.90;11.57;;;;;;;5.77;100.00;152843.94;5072862;28;20460;-75
2021/12/13 08:36:38;;;;;;;22.33;13.10;;;;;;;5.81;100.00;152854.28;5084115;28;20837;-75
2021/12/13 08:39:16;;;;;;;17.37;12.07;;;;;;;5.80;100.00;152851.66;5080217;28;20787;-75
2021/12/13 08:41:55;;;;;;;19.03;12.23;;;;;;;5.83;100.00;152858.13;5076937;28;20454;-75
2021/12/13 08:44:32;;;;;;;22.27;12.40;;;;;;;5.87;100.00;152868.50;5093941;28;20948;-75
2021/12/13 08:47:11;;;;;;;18.73;13.10;;;;;;;5.91;100.00;152878.81;5103945;28;20436;-75
2021/12/13 08:49:50;;;;;;;17.97;11.67;;;;;;;5.93;100.00;152885.25;5080767;28;20456;-75
2021/12/13 08:52:28;;;;;;;17.03;12.70;;;;;;;5.93;100.00;152884.00;5059711;28;20445;-75
2021/12/13 08:55:10;;;;;;;18.77;14.03;;;;;;;5.93;100.00;152885.25;5068034;28;20462;-75
2021/12/13 08:57:50;;;;;;;19.00;12.80;;;;;;;5.93;100.00;152885.25;5053094;28;20434;-75
2021/12/13 09:00:42;;;;;;;20.20;15.03;;;;;;;5.96;100.00;152891.69;5056153;28;20441;-75
2021/12/13 09:03:29;;;;;;;16.73;11.87;;;;;;;6.00;100.00;152903.34;5058666;28;20847;-75
2021/12/13 09:06:29;;;;;;;21.50;14.20;;;;;;;6.05;100.00;152916.25;5072191;28;20450;-75
2021/12/13 09:09:11;;;;;;;21.77;12.43;;;;;;;6.03;100.00;152911.09;5076543;28;20469;-75
2021/12/13 09:11:55;;;;;;;19.13;12.80;;;;;;;6.06;100.00;152918.78;5040382;28;20449;-75
2021/12/13 09:14:38;;;;;;;22.23;14.00;;;;;;;6.10;100.00;152929.13;5071612;28;20850;-75
2021/12/13 09:17:21;;;;;;;15.70;11.40;;;;;;;6.17;100.00;152944.63;5069375;28;20529;-75
2021/12/13 09:20:03;;;;;;;21.83;13.57;;;;;;;6.19;100.00;152951.06;5087477;28;20472;-76
2021/12/13 09:22:41;;;;;;;18.87;13.40;;;;;;;6.22;100.00;152958.81;5102498;28;20452;-75
2021/12/13 09:25:19;;;;;;;20.73;14.37;;;;;;;6.26;100.00;152967.81;5060312;28;20491;-75
2021/12/13 09:28:01;;;;;;;15.80;12.13;;;;;;;6.27;100.00;152970.41;5058366;28;20548;-75
2021/12/13 09:30:41;;;;;;;23.33;14.07;;;;;;;6.27;100.00;152970.41;5086361;28;20534;-75
2021/12/13 09:33:20;;;;;;;21.90;13.90;;;;;;;6.31;100.00;152982.03;5084390;28;20498;-75
2021/12/13 09:35:59;;;;;;;17.93;14.00;;;;;;;6.38;100.00;152998.81;5092475;28;20449;-75
2021/12/13 09:38:45;;;;;;;20.47;12.70;;;;;;;6.41;100.00;153006.53;5065461;28;20446;-75
2021/12/13 09:41:32;;;;;;;19.77;12.50;;;;;;;6.43;100.00;153013.03;5076709;28;20548;-75
2021/12/13 09:44:23;;;;;;;20.73;13.07;;;;;;;6.45;100.00;153016.88;5092592;28;20421;-75
2021/12/13 09:47:05;;;;;;;18.80;13.07;;;;;;;6.48;100.00;153024.63;5074029;28;20450;-76
2021/12/13 09:49:45;;;;;;;20.10;13.23;;;;;;;6.52;100.00;153036.22;5071629;28;20506;-76
2021/12/13 09:52:29;;;;;;;16.40;12.30;;;;;;;6.59;100.00;153053.00;5073594;28;20429;-76
2021/12/13 09:55:09;;;;;;;17.60;12.87;;;;;;;6.59;100.00;153053.00;5073021;28;20445;-75
2021/12/13 09:57:52;;;;;;;17.87;12.73;;;;;;;6.60;100.00;153055.56;5070352;28;20454;-75
2021/12/13 10:00:34;;;;;;;14.80;11.67;;;;;;;6.64;100.00;153065.91;5073249;28;20830;-75
2021/12/13 10:03:18;;;;;;;16.70;12.80;;;;;;;6.66;100.00;153072.38;5089469;28;20876;-75
2021/12/13 10:06:01;;;;;;;17.60;12.20;;;;;;;6.74;100.00;153091.72;5068641;28;20437;-75
2021/12/13 10:08:42;;;;;;;17.93;11.33;;;;;;;6.74;100.00;153091.72;5074649;28;20909;-75
2021/12/13 10:11:33;;;;;;;13.13;10.27;;;;;;;6.77;100.00;153099.47;5088146;28;20456;-76
2021/12/13 10:14:11;;;;;;;12.57;9.23;;;;;;;6.83;100.00;153113.69;5067236;28;20437;-75
2021/12/13 10:16:48;;;;;;;11.20;9.03;;;;;;;6.86;100.00;153122.69;5051662;28;20426;-75
2021/12/13 10:19:29;;;;;;;12.10;9.40;;;;;;;6.88;100.00;153127.88;5050938;28;20807;-75
2021/12/13 10:22:07;;;;;;;14.90;10.37;;;;;;;6.90;100.00;153133.03;5091778;28;20421;-75
2021/12/13 10:24:53;;;;;;;13.83;10.27;;;;;;;6.94;100.00;153142.03;5088949;28;20448;-75
2021/12/13 10:27:29;;;;;;;13.37;10.20;;;;;;;7.03;100.00;153165.28;5051054;28;20419;-75
2021/12/13 10:30:08;;;;;;;12.37;10.40;;;;;;;7.04;100.00;153167.91;5040584;28;20443;-75
2021/12/13 10:32:44;;;;;;;13.43;9.17;;;;;;;7.03;100.00;153166.59;5024992;28;20446;-75
2021/12/13 10:35:22;;;;;;;13.10;9.00;;;;;;;7.05;100.00;153171.75;5043507;28;20459;-75
2021/12/13 10:38:01;;;;;;;17.60;9.60;;;;;;;7.12;100.00;153189.81;5041551;28;20462;-75
2021/12/13 10:40:43;;;;;;;13.90;10.20;;;;;;;7.18;100.00;153205.31;5058745;28;20856;-73
2021/12/13 10:43:23;;;;;;;12.47;9.10;;;;;;;7.18;100.00;153205.31;5037903;28;20443;-76
2021/12/13 10:46:02;;;;;;;13.30;9.70;;;;;;;7.25;100.00;153222.13;5037852;28;20439;-76
2021/12/13 10:48:44;;;;;;;13.43;8.97;;;;;;;7.25;100.00;153222.13;5051526;28;20454;-75
2021/12/13 10:51:24;;;;;;;13.23;9.57;;;;;;;7.26;100.00;153225.97;5046808;28;20477;-75
2021/12/13 10:54:04;;;;;;;12.23;8.23;;;;;;;7.33;100.00;153244.03;5046358;28;20448;-76
2021/12/13 10:56:44;;;;;;;13.87;9.47;;;;;;;7.34;100.00;153245.34;5049546;28;20832;-76
2021/12/13 10:59:24;;;;;;;12.50;9.10;;;;;;;7.36;100.00;153251.78;5055295;28;20438;-75
2021/12/13 11:02:03;;;;;;;10.23;7.97;;;;;;;7.40;100.00;153260.84;5040398;28;20950;-76
2021/12/13 11:04:42;;;;;;;12.13;7.37;;;;;;;7.39;100.00;153257.00;5029887;28;20447;-75
2021/12/13 11:07:18;;;;;;;9.53;7.13;;;;;;;7.44;100.00;153269.91;5033024;28;20465;-76
2021/12/13 11:09:56;;;;;;;13.30;9.23;;;;;;;7.54;100.00;153295.72;5048086;28;20554;-76
2021/12/13 11:12:38;;;;;;;11.60;9.50;;;;;;;7.49;100.00;153284.13;5034801;28;20867;-76
2021/12/13 11:15:17;;;;;;;12.73;9.30;;;;;;;7.51;100.00;153287.97;5048156;28;20438;-74
2021/12/13 11:17:55;;;;;;;14.20;9.37;;;;;;;7.59;100.00;153309.94;5047228;28;20834;-74
2021/12/13 11:20:32;;;;;;;15.17;10.87;;;;;;;7.63;100.00;153318.94;5067100;28;20553;-74
2021/12/13 11:23:08;;;;;;;13.87;9.00;;;;;;;7.67;100.00;153330.59;5047165;28;20541;-74
2021/12/13 11:25:47;;;;;;;12.00;9.00;;;;;;;7.68;100.00;153331.84;5034023;28;21014;-75
2021/12/13 11:28:24;;;;;;;11.17;8.20;;;;;;;7.70;100.00;153338.38;5030830;28;20467;-74
2021/12/13 11:31:02;;;;;;;11.67;7.90;;;;;;;7.73;100.00;153344.81;5040168;28;20466;-74
2021/12/13 11:34:16;;;;;;;12.50;9.00;;;;;;;7.74;100.00;153347.38;5050006;28;20450;-74
2021/12/13 11:37:26;;;;;;;10.40;7.43;;;;;;;7.80;100.00;153362.88;5043162;28;20849;-74
2021/12/13 11:40:21;;;;;;;10.93;8.33;;;;;;;7.77;100.00;153356.44;5033735;28;20787;-74
2021/12/13 11:43:12;;;;;;;9.73;7.73;;;;;;;7.74;100.00;153347.38;5039685;28;20467;-74
2021/12/13 11:46:27;;;;;;;10.27;7.47;;;;;;;7.79;100.00;153361.59;5028616;28;20505;-74
2021/12/13 11:49:25;;;;;;;11.20;8.90;;;;;;;7.76;100.00;153353.84;5037286;28;20499;-74
2021/12/13 11:52:39;;;;;;;14.00;9.47;;;;;;;7.74;100.00;153348.69;5053157;28;20534;-74
2021/12/13 11:55:35;;;;;;;12.10;8.80;;;;;;;7.73;100.00;153344.81;5038505;28;20438;-74
2021/12/13 11:58:37;;;;;;;15.40;11.07;;;;;;;7.77;100.00;153356.44;5045746;28;20439;-74
2021/12/13 12:01:49;;;;;;;13.33;10.20;;;;;;;7.78;100.00;153357.72;5021494;28;20451;-74
2021/12/13 12:05:05;;;;;;;12.57;9.10;;;;;;;7.82;100.00;153368.03;5048086;28;20786;-74
2021/12/13 12:08:08;;;;;;;15.70;9.63;;;;;;;7.91;100.00;153391.31;5046189;28;20816;-75
2021/12/13 12:10:58;;;;;;;14.23;9.97;;;;;;;7.90;100.00;153390.03;5033569;28;20796;-74
2021/12/13 12:13:39;;;;;;;11.33;8.73;;;;;;;7.80;100.00;153364.19;5051996;28;20446;-74
2021/12/13 12:16:14;;;;;;;10.30;7.90;;;;;;;7.83;100.00;153370.66;5037914;28;20545;-74
2021/12/13 12:18:53;;;;;;;12.50;8.57;;;;;;;7.89;100.00;153387.41;5039776;28;20451;-74
2021/12/13 12:21:43;;;;;;;12.33;8.80;;;;;;;7.89;100.00;153386.13;5044623;28;20427;-74
2021/12/13 12:24:23;;;;;;;14.07;10.13;;;;;;;7.86;100.00;153378.41;5051123;28;20850;-74